Time;durP1;ratioP1;P1;durP2;ratioP2;P2;SDS_P1;SDS_P2;PMS_P1;PMS_P2;Temp;Humidity;BMP_temperature;BMP_pressure;BME280_temperature;BME280_humidity;BME280_pressure;Samples;Min_cycle;Max_cycle;Signal;HPM_P1;HPM_P2
2023/03/28 00:01:03;;;;;;;2.40;1.20;;;;;;;;;;5068213;28;20198;-72
2023/03/28 00:03:34;;;;;;;4.10;1.10;;;;;;;;;;5064065;28;20538;-71
2023/03/28 00:06:00;;;;;;;2.77;1.07;;;;;;;;;;5062154;28;20200;-71
2023/03/28 00:08:28;;;;;;;1.73;0.93;;;;;;;;;;5067661;28;20197;-71
2023/03/28 00:11:02;;;;;;;4.67;1.20;;;;;;;;;;5068079;28;20213;-72
2023/03/28 00:13:30;;;;;;;3.27;0.97;;;;;;;;;;5066421;28;20407;-71
2023/03/28 00:16:02;;;;;;;3.17;0.93;;;;;;;;;;5048569;28;20233;-71
2023/03/28 00:18:28;;;;;;;1.70;0.83;;;;;;;;;;5066951;28;20286;-72
2023/03/28 00:20:55;;;;;;;0.77;0.60;;;;;;;;;;5065231;28;20193;-71
2023/03/28 00:23:21;;;;;;;2.00;0.90;;;;;;;;;;5069198;28;20225;-71
2023/03/28 00:25:48;;;;;;;1.23;0.60;;;;;;;;;;5068629;28;20205;-71
2023/03/28 00:28:16;;;;;;;2.67;1.03;;;;;;;;;;5067615;28;20192;-71
2023/03/28 00:30:42;;;;;;;2.37;0.50;;;;;;;;;;5050517;28;20191;-71
2023/03/28 00:33:09;;;;;;;1.23;0.57;;;;;;;;;;5062995;28;20214;-72
2023/03/28 00:35:35;;;;;;;1.60;0.63;;;;;;;;;;5066908;28;20257;-72
2023/03/28 00:38:03;;;;;;;1.13;0.53;;;;;;;;;;5063649;28;20200;-72
2023/03/28 00:40:34;;;;;;;0.53;0.40;;;;;;;;;;5052779;28;20673;-71
2023/03/28 00:43:01;;;;;;;1.07;0.63;;;;;;;;;;5053983;28;20233;-71
2023/03/28 00:45:28;;;;;;;0.70;0.60;;;;;;;;;;5061021;28;20206;-71
2023/03/28 00:48:00;;;;;;;0.63;0.50;;;;;;;;;;5064021;28;20536;-71
2023/03/28 00:50:29;;;;;;;1.60;0.70;;;;;;;;;;5048151;28;20220;-71
2023/03/28 00:52:58;;;;;;;3.47;0.70;;;;;;;;;;5050208;28;20756;-72
2023/03/28 00:55:26;;;;;;;1.33;0.60;;;;;;;;;;5059572;28;20249;-71
2023/03/28 00:57:53;;;;;;;0.67;0.40;;;;;;;;;;5061070;28;20202;-72
2023/03/28 01:00:20;;;;;;;0.60;0.60;;;;;;;;;;5050226;28;20195;-71
2023/03/28 01:02:51;;;;;;;1.03;0.53;;;;;;;;;;5067321;28;20229;-72
2023/03/28 01:05:18;;;;;;;0.30;0.30;;;;;;;;;;5052892;28;20255;-72
2023/03/28 01:07:46;;;;;;;1.53;0.57;;;;;;;;;;5053944;28;20216;-72
2023/03/28 01:10:18;;;;;;;2.33;0.60;;;;;;;;;;5057400;28;20202;-72
2023/03/28 01:12:45;;;;;;;2.97;0.60;;;;;;;;;;5050308;28;20216;-72
2023/03/28 01:15:13;;;;;;;0.40;0.40;;;;;;;;;;5041739;28;20214;-72
2023/03/28 01:17:50;;;;;;;0.47;0.47;;;;;;;;;;5045317;28;20206;-72
2023/03/28 01:20:25;;;;;;;1.10;0.50;;;;;;;;;;5053677;28;20200;-71
2023/03/28 01:23:05;;;;;;;1.83;1.10;;;;;;;;;;5077798;28;20225;-72
2023/03/28 01:25:47;;;;;;;4.17;1.07;;;;;;;;;;5043215;28;20197;-72
2023/03/28 01:28:21;;;;;;;0.90;0.40;;;;;;;;;;5055346;28;20704;-72
2023/03/28 01:30:58;;;;;;;0.50;0.50;;;;;;;;;;5054297;28;20270;-72
2023/03/28 01:33:57;;;;;;;0.80;0.53;;;;;;;;;;5070179;28;20352;-71
2023/03/28 01:36:50;;;;;;;0.70;0.47;;;;;;;;;;5065602;28;20187;-71
2023/03/28 01:39:22;;;;;;;3.37;0.67;;;;;;;;;;5063913;28;20663;-72
2023/03/28 01:41:52;;;;;;;0.83;0.60;;;;;;;;;;5055435;28;20678;-72
2023/03/28 01:44:22;;;;;;;2.33;0.47;;;;;;;;;;5054821;28;20227;-71
2023/03/28 01:46:53;;;;;;;0.97;0.63;;;;;;;;;;5064283;28;20617;-72
2023/03/28 01:49:25;;;;;;;2.37;0.60;;;;;;;;;;5051731;28;20269;-72
2023/03/28 01:51:57;;;;;;;0.70;0.70;;;;;;;;;;5061420;28;20199;-72
2023/03/28 01:54:28;;;;;;;0.60;0.50;;;;;;;;;;5054878;28;20268;-72
2023/03/28 01:56:58;;;;;;;4.63;0.90;;;;;;;;;;5055175;28;20295;-72
2023/03/28 01:59:33;;;;;;;0.60;0.60;;;;;;;;;;5052148;28;20234;-72
2023/03/28 02:02:26;;;;;;;1.63;0.70;;;;;;;;;;5034226;28;20317;-73
2023/03/28 02:04:58;;;;;;;0.87;0.50;;;;;;;;;;5052920;28;20300;-72
2023/03/28 02:07:27;;;;;;;0.63;0.50;;;;;;;;;;5053653;28;20202;-72
2023/03/28 02:10:07;;;;;;;0.80;0.70;;;;;;;;;;5045333;28;20249;-72
2023/03/28 02:12:57;;;;;;;1.17;0.80;;;;;;;;;;5063071;28;20585;-72
2023/03/28 02:15:42;;;;;;;0.40;0.40;;;;;;;;;;5053208;28;20686;-72
2023/03/28 02:18:28;;;;;;;0.40;0.40;;;;;;;;;;5051858;28;20588;-71
2023/03/28 02:21:19;;;;;;;0.50;0.50;;;;;;;;;;5067928;28;20206;-72
2023/03/28 02:24:11;;;;;;;0.63;0.63;;;;;;;;;;5052393;28;20664;-74
2023/03/28 02:26:56;;;;;;;0.90;0.47;;;;;;;;;;5067706;28;20299;-72
2023/03/28 02:29:32;;;;;;;0.90;0.60;;;;;;;;;;5054728;28;20618;-72
2023/03/28 02:32:13;;;;;;;2.40;0.80;;;;;;;;;;5054709;28;20201;-72
2023/03/28 02:34:39;;;;;;;0.83;0.83;;;;;;;;;;5043698;28;20652;-72
2023/03/28 02:37:12;;;;;;;3.37;1.00;;;;;;;;;;5060134;28;20190;-72
2023/03/28 02:39:45;;;;;;;8.57;0.90;;;;;;;;;;5052411;28;20207;-72
2023/03/28 02:42:33;;;;;;;2.00;1.07;;;;;;;;;;5051230;28;20195;-71
2023/03/28 02:45:05;;;;;;;1.50;1.03;;;;;;;;;;5063960;28;20214;-71
2023/03/28 02:47:36;;;;;;;2.00;0.80;;;;;;;;;;5071308;28;20191;-72
2023/03/28 02:50:10;;;;;;;4.43;1.00;;;;;;;;;;5054540;28;20277;-72
2023/03/28 02:52:39;;;;;;;0.70;0.70;;;;;;;;;;5051742;28;20216;-72
2023/03/28 02:55:12;;;;;;;3.07;1.00;;;;;;;;;;5071350;28;20195;-72
2023/03/28 02:57:49;;;;;;;2.93;1.27;;;;;;;;;;5061552;28;20255;-72
2023/03/28 03:00:17;;;;;;;0.90;0.70;;;;;;;;;;5054205;28;20226;-72
2023/03/28 03:02:46;;;;;;;1.23;0.80;;;;;;;;;;5054298;28;20227;-71
2023/03/28 03:05:13;;;;;;;2.13;1.03;;;;;;;;;;5053731;28;20206;-72
2023/03/28 03:07:40;;;;;;;1.23;1.00;;;;;;;;;;5050462;28;20298;-72
2023/03/28 03:10:07;;;;;;;1.97;1.10;;;;;;;;;;5044296;28;20202;-72
2023/03/28 03:12:35;;;;;;;1.13;1.03;;;;;;;;;;5076862;28;20626;-72
2023/03/28 03:15:03;;;;;;;3.10;1.07;;;;;;;;;;5058961;28;20194;-72
2023/03/28 03:17:50;;;;;;;4.13;1.23;;;;;;;;;;5070743;28;20210;-72
2023/03/28 03:20:24;;;;;;;2.70;1.40;;;;;;;;;;5046435;28;20191;-72
2023/03/28 03:22:51;;;;;;;2.37;1.47;;;;;;;;;;5070783;28;20619;-72
2023/03/28 03:25:17;;;;;;;2.80;1.07;;;;;;;;;;5051674;28;20668;-72
2023/03/28 03:28:08;;;;;;;2.83;1.13;;;;;;;;;;5056053;28;20218;-72
2023/03/28 03:30:34;;;;;;;8.17;1.73;;;;;;;;;;5053320;28;20655;-71
2023/03/28 03:33:27;;;;;;;2.70;1.30;;;;;;;;;;5064790;28;20223;-72
2023/03/28 03:36:00;;;;;;;1.30;1.10;;;;;;;;;;5049787;28;20191;-72
2023/03/28 03:38:27;;;;;;;3.03;1.20;;;;;;;;;;5053209;28;20248;-72
2023/03/28 03:40:53;;;;;;;2.67;1.20;;;;;;;;;;5051994;28;20203;-72
2023/03/28 03:43:21;;;;;;;4.50;1.30;;;;;;;;;;5052527;28;20737;-72
2023/03/28 03:45:47;;;;;;;2.37;1.40;;;;;;;;;;5065484;28;20199;-71
2023/03/28 03:48:14;;;;;;;1.80;1.30;;;;;;;;;;5047763;28;20195;-72
2023/03/28 03:50:40;;;;;;;4.50;1.40;;;;;;;;;;5047525;28;20204;-72
2023/03/28 03:53:13;;;;;;;2.03;1.23;;;;;;;;;;5050852;28;20214;-72
2023/03/28 03:55:48;;;;;;;4.20;1.30;;;;;;;;;;5052695;28;20202;-72
2023/03/28 03:58:15;;;;;;;2.07;1.13;;;;;;;;;;5056446;28;20198;-72
2023/03/28 04:00:45;;;;;;;2.83;1.17;;;;;;;;;;5044548;28;20199;-72
2023/03/28 04:03:26;;;;;;;2.23;1.30;;;;;;;;;;5051093;28;20651;-72
2023/03/28 04:05:56;;;;;;;2.70;1.10;;;;;;;;;;5052613;28;20210;-72
2023/03/28 04:08:23;;;;;;;4.07;1.40;;;;;;;;;;5061627;28;20195;-72
2023/03/28 04:10:51;;;;;;;2.07;1.37;;;;;;;;;;5067922;28;20198;-73
2023/03/28 04:13:17;;;;;;;1.97;1.33;;;;;;;;;;5068038;28;20230;-72
2023/03/28 04:15:54;;;;;;;1.80;1.20;;;;;;;;;;5051580;28;20190;-71
2023/03/28 04:18:49;;;;;;;4.67;1.50;;;;;;;;;;5051157;28;20293;-72
2023/03/28 04:21:26;;;;;;;1.77;1.30;;;;;;;;;;5068045;28;20202;-72
2023/03/28 04:23:54;;;;;;;3.70;1.33;;;;;;;;;;5069695;28;20578;-72
2023/03/28 04:26:27;;;;;;;1.50;1.10;;;;;;;;;;5050370;28;20256;-72
2023/03/28 04:29:03;;;;;;;5.83;1.60;;;;;;;;;;5055872;28;20202;-72
2023/03/28 04:31:34;;;;;;;2.07;1.30;;;;;;;;;;5052994;28;20233;-73
2023/03/28 04:34:24;;;;;;;0.77;0.77;;;;;;;;;;5064466;28;20879;-73
2023/03/28 04:37:01;;;;;;;1.10;1.00;;;;;;;;;;5051372;28;20209;-73
2023/03/28 04:39:29;;;;;;;2.47;1.20;;;;;;;;;;5048736;28;20198;-72
2023/03/28 04:42:07;;;;;;;2.23;0.73;;;;;;;;;;5052426;28;20226;-73
2023/03/28 04:44:53;;;;;;;0.93;0.93;;;;;;;;;;5068811;28;20320;-72
2023/03/28 04:47:25;;;;;;;2.77;1.13;;;;;;;;;;5064146;28;20291;-72
2023/03/28 04:49:54;;;;;;;2.60;0.77;;;;;;;;;;5053576;28;20205;-72
2023/03/28 04:52:20;;;;;;;3.10;0.90;;;;;;;;;;5055546;28;20226;-73
2023/03/28 04:54:47;;;;;;;3.50;1.10;;;;;;;;;;5059707;28;20191;-73
2023/03/28 04:57:15;;;;;;;1.37;1.10;;;;;;;;;;5051982;28;20191;-72
2023/03/28 04:59:44;;;;;;;6.20;1.40;;;;;;;;;;5056444;28;20201;-73
2023/03/28 05:05:02;;;;;;;3.70;1.30;;;;;;;;;;5067378;28;20207;-73
2023/03/28 05:07:29;;;;;;;1.00;0.93;;;;;;;;;;5073278;28;20236;-74
2023/03/28 05:09:55;;;;;;;4.33;1.33;;;;;;;;;;5056043;28;20198;-73
2023/03/28 05:12:22;;;;;;;2.33;1.87;;;;;;;;;;5056417;28;20218;-73
2023/03/28 05:15:05;;;;;;;4.00;2.10;;;;;;;;;;5040949;28;20222;-73
2023/03/28 05:17:39;;;;;;;2.80;1.40;;;;;;;;;;5055634;28;20198;-73
2023/03/28 05:20:21;;;;;;;2.30;1.13;;;;;;;;;;5056064;28;20191;-73
2023/03/28 05:22:53;;;;;;;4.43;1.70;;;;;;;;;;5048790;28;20226;-73
2023/03/28 05:25:21;;;;;;;5.30;1.20;;;;;;;;;;5069570;28;20252;-74
2023/03/28 05:27:51;;;;;;;6.90;4.77;;;;;;;;;;5055668;28;20578;-73
2023/03/28 05:30:19;;;;;;;5.83;3.03;;;;;;;;;;5050248;28;20524;-73
2023/03/28 05:32:53;;;;;;;9.03;6.90;;;;;;;;;;5072507;28;20685;-73
2023/03/28 05:35:29;;;;;;;2.00;1.70;;;;;;;;;;5055664;28;20229;-73
2023/03/28 05:38:13;;;;;;;3.83;2.33;;;;;;;;;;5056177;28;20206;-73
2023/03/28 05:40:50;;;;;;;1.83;1.60;;;;;;;;;;5054950;28;20195;-72
2023/03/28 05:43:17;;;;;;;2.67;2.03;;;;;;;;;;5059617;28;20326;-73
2023/03/28 05:45:43;;;;;;;3.23;1.97;;;;;;;;;;5045506;28;20289;-73
2023/03/28 05:48:17;;;;;;;8.43;1.90;;;;;;;;;;5055575;28;20251;-72
2023/03/28 05:50:47;;;;;;;4.23;1.60;;;;;;;;;;5052395;28;20736;-72
2023/03/28 05:53:14;;;;;;;6.60;1.90;;;;;;;;;;5047931;28;20273;-72
2023/03/28 05:55:41;;;;;;;4.27;1.73;;;;;;;;;;5068743;28;20648;-72
2023/03/28 05:58:07;;;;;;;3.47;1.53;;;;;;;;;;5054245;28;20226;-72
2023/03/28 06:00:39;;;;;;;2.90;1.90;;;;;;;;;;5051152;28;20207;-72
2023/03/28 06:03:06;;;;;;;3.93;1.80;;;;;;;;;;5051841;28;20220;-72
2023/03/28 06:05:36;;;;;;;3.47;1.67;;;;;;;;;;5044111;28;20206;-72
2023/03/28 06:08:08;;;;;;;4.07;2.10;;;;;;;;;;5053230;28;20431;-73
2023/03/28 06:10:35;;;;;;;4.43;1.93;;;;;;;;;;5053470;28;20240;-73
2023/03/28 06:13:19;;;;;;;3.63;1.87;;;;;;;;;;5053752;28;20693;-72
2023/03/28 06:15:47;;;;;;;2.67;1.60;;;;;;;;;;5068345;28;20714;-73
2023/03/28 06:18:13;;;;;;;2.10;1.60;;;;;;;;;;5041182;28;20203;-72
2023/03/28 06:20:44;;;;;;;4.07;2.17;;;;;;;;;;5053272;28;20195;-74
2023/03/28 06:23:13;;;;;;;3.30;1.70;;;;;;;;;;5036721;28;20306;-72
2023/03/28 06:25:40;;;;;;;4.87;1.60;;;;;;;;;;5065349;28;20242;-72
2023/03/28 06:28:07;;;;;;;4.43;1.97;;;;;;;;;;5067650;28;20568;-72
2023/03/28 06:30:42;;;;;;;3.90;2.07;;;;;;;;;;5051854;28;20203;-72
2023/03/28 06:33:08;;;;;;;4.83;2.13;;;;;;;;;;5052947;28;20245;-72
2023/03/28 06:35:34;;;;;;;3.90;1.57;;;;;;;;;;5053619;28;20675;-72
2023/03/28 06:38:01;;;;;;;4.00;1.40;;;;;;;;;;5045801;28;20619;-72
2023/03/28 06:40:29;;;;;;;3.47;1.70;;;;;;;;;;5049405;28;20206;-72
2023/03/28 06:42:56;;;;;;;5.83;1.97;;;;;;;;;;5070462;28;20225;-73
2023/03/28 06:45:45;;;;;;;3.27;1.80;;;;;;;;;;5056956;28;20307;-72
2023/03/28 06:48:14;;;;;;;2.90;1.73;;;;;;;;;;5052372;28;20248;-72
2023/03/28 06:50:58;;;;;;;4.97;1.70;;;;;;;;;;5064666;28;20197;-73
2023/03/28 06:53:26;;;;;;;3.70;1.43;;;;;;;;;;5045598;28;20214;-72
2023/03/28 06:55:54;;;;;;;3.50;1.60;;;;;;;;;;5064317;28;20206;-73
2023/03/28 06:58:22;;;;;;;7.57;1.67;;;;;;;;;;5042222;28;20195;-73
2023/03/28 07:00:58;;;;;;;3.07;1.70;;;;;;;;;;5062972;28;20310;-72
2023/03/28 07:03:42;;;;;;;2.27;1.73;;;;;;;;;;5054639;28;20234;-74
2023/03/28 07:06:11;;;;;;;4.00;1.60;;;;;;;;;;5064433;28;20203;-75
2023/03/28 07:08:38;;;;;;;5.20;1.63;;;;;;;;;;5060502;28;20619;-75
2023/03/28 07:11:06;;;;;;;2.10;1.47;;;;;;;;;;5082960;28;20225;-74
2023/03/28 07:13:34;;;;;;;4.43;1.40;;;;;;;;;;5063293;28;20227;-74
2023/03/28 07:16:08;;;;;;;3.77;1.27;;;;;;;;;;5065151;28;20179;-73
2023/03/28 07:18:35;;;;;;;3.07;1.67;;;;;;;;;;5067566;28;20274;-74
2023/03/28 07:21:05;;;;;;;4.50;2.20;;;;;;;;;;5073303;28;20215;-74
2023/03/28 07:23:32;;;;;;;5.23;2.10;;;;;;;;;;5066561;28;20271;-72
2023/03/28 07:25:59;;;;;;;4.60;2.20;;;;;;;;;;5067305;28;20208;-74
2023/03/28 07:28:28;;;;;;;4.00;2.03;;;;;;;;;;5067701;28;20211;-75
2023/03/28 07:30:56;;;;;;;5.30;2.50;;;;;;;;;;5068716;28;20581;-74
2023/03/28 07:33:22;;;;;;;2.67;1.80;;;;;;;;;;5060954;28;20247;-74
2023/03/28 07:35:51;;;;;;;2.37;1.60;;;;;;;;;;5066958;28;20229;-73
2023/03/28 07:38:20;;;;;;;2.53;1.27;;;;;;;;;;5071713;28;20264;-75
2023/03/28 07:40:49;;;;;;;3.20;1.40;;;;;;;;;;5047334;28;20203;-73
2023/03/28 07:43:16;;;;;;;2.40;1.20;;;;;;;;;;5053777;28;20209;-73
2023/03/28 07:45:45;;;;;;;3.00;1.20;;;;;;;;;;5085468;28;20213;-74
2023/03/28 07:48:12;;;;;;;2.80;1.23;;;;;;;;;;5069311;28;20226;-74
2023/03/28 07:50:40;;;;;;;1.50;1.00;;;;;;;;;;5057600;28;20194;-72
2023/03/28 07:53:08;;;;;;;1.17;0.83;;;;;;;;;;5069227;28;20228;-74
2023/03/28 07:55:37;;;;;;;1.00;0.90;;;;;;;;;;5067122;28;20217;-74
2023/03/28 07:58:06;;;;;;;0.87;0.87;;;;;;;;;;5083658;28;20206;-73
2023/03/28 08:00:36;;;;;;;0.93;0.80;;;;;;;;;;5067566;28;20190;-72
2023/03/28 08:03:30;;;;;;;2.87;1.07;;;;;;;;;;5081426;28;20222;-74
2023/03/28 08:06:01;;;;;;;4.07;1.07;;;;;;;;;;5064393;28;20684;-74
2023/03/28 08:08:28;;;;;;;0.80;0.80;;;;;;;;;;5080905;28;20202;-74
2023/03/28 08:11:11;;;;;;;1.10;1.00;;;;;;;;;;5067476;28;20199;-74
2023/03/28 08:13:38;;;;;;;5.13;0.90;;;;;;;;;;5064827;28;20219;-73
2023/03/28 08:16:10;;;;;;;2.87;1.13;;;;;;;;;;5064952;28;20340;-72
2023/03/28 08:18:38;;;;;;;2.50;0.73;;;;;;;;;;5064375;28;20210;-73
2023/03/28 08:21:05;;;;;;;1.60;1.20;;;;;;;;;;5074168;28;20217;-74
2023/03/28 08:23:33;;;;;;;2.17;1.13;;;;;;;;;;5058580;28;20210;-75
2023/03/28 08:26:12;;;;;;;0.90;0.73;;;;;;;;;;5080043;28;20264;-74
2023/03/28 08:28:42;;;;;;;1.20;0.80;;;;;;;;;;5070929;28;20236;-75
2023/03/28 08:31:13;;;;;;;1.93;1.10;;;;;;;;;;5065620;28;20208;-75
2023/03/28 08:33:41;;;;;;;2.93;1.07;;;;;;;;;;5087431;28;20214;-74
2023/03/28 08:36:09;;;;;;;2.20;1.00;;;;;;;;;;5061952;28;20201;-74
2023/03/28 08:38:36;;;;;;;3.00;1.10;;;;;;;;;;5080523;28;20255;-75
2023/03/28 08:41:11;;;;;;;1.20;1.10;;;;;;;;;;5064070;28;20195;-73
2023/03/28 08:44:02;;;;;;;8.40;4.47;;;;;;;;;;5066314;28;20242;-74
2023/03/28 08:46:31;;;;;;;3.07;1.93;;;;;;;;;;5057055;28;20195;-74
2023/03/28 08:49:00;;;;;;;1.87;0.70;;;;;;;;;;5078255;28;20214;-75
2023/03/28 08:51:34;;;;;;;4.67;1.03;;;;;;;;;;5061212;28;20202;-74
2023/03/28 08:54:06;;;;;;;2.10;1.00;;;;;;;;;;5070512;28;20226;-75
2023/03/28 08:56:35;;;;;;;1.07;0.90;;;;;;;;;;5074208;28;20217;-74
2023/03/28 08:59:05;;;;;;;1.80;1.00;;;;;;;;;;5099723;28;20222;-74
2023/03/28 09:01:32;;;;;;;5.00;1.40;;;;;;;;;;5085355;28;20206;-72
2023/03/28 09:04:02;;;;;;;3.10;1.20;;;;;;;;;;5057756;28;20255;-74
2023/03/28 09:06:35;;;;;;;4.80;1.30;;;;;;;;;;5082001;28;20497;-75
2023/03/28 09:09:26;;;;;;;2.43;1.10;;;;;;;;;;5081180;28;20211;-74
2023/03/28 09:12:19;;;;;;;0.97;0.97;;;;;;;;;;5059247;28;20191;-74
2023/03/28 09:14:54;;;;;;;0.50;0.50;;;;;;;;;;5065834;28;20199;-74
2023/03/28 09:17:23;;;;;;;1.77;0.87;;;;;;;;;;5067636;28;20194;-75
2023/03/28 09:19:59;;;;;;;5.43;0.93;;;;;;;;;;5068125;28;20217;-75
2023/03/28 09:22:55;;;;;;;0.60;0.60;;;;;;;;;;5086007;28;20234;-72
2023/03/28 09:25:31;;;;;;;1.40;0.63;;;;;;;;;;5061808;28;20222;-74
2023/03/28 09:28:04;;;;;;;2.17;0.70;;;;;;;;;;5067161;28;20202;-74
2023/03/28 09:30:32;;;;;;;2.13;0.60;;;;;;;;;;5084517;28;20297;-72
2023/03/28 09:32:59;;;;;;;3.67;1.10;;;;;;;;;;5065609;28;20726;-75
2023/03/28 09:35:28;;;;;;;2.37;0.60;;;;;;;;;;5068495;28;20226;-75
2023/03/28 09:37:56;;;;;;;2.30;0.53;;;;;;;;;;5076322;28;20200;-75
2023/03/28 09:40:23;;;;;;;0.80;0.80;;;;;;;;;;5067572;28;20182;-74
2023/03/28 09:43:15;;;;;;;1.63;0.70;;;;;;;;;;5058220;28;20230;-75
2023/03/28 09:45:53;;;;;;;0.80;0.73;;;;;;;;;;5084341;28;20217;-74
2023/03/28 09:48:55;;;;;;;0.50;0.50;;;;;;;;;;5074497;28;20198;-75
2023/03/28 09:51:26;;;;;;;0.40;0.40;;;;;;;;;;5093558;28;20281;-75
2023/03/28 09:53:54;;;;;;;0.73;0.50;;;;;;;;;;5066851;28;20630;-75
2023/03/28 09:56:26;;;;;;;0.40;0.40;;;;;;;;;;5081854;28;20202;-74
2023/03/28 09:58:55;;;;;;;0.87;0.60;;;;;;;;;;5079833;28;20226;-73
2023/03/28 10:01:48;;;;;;;1.30;0.73;;;;;;;;;;5076820;28;20232;-74
2023/03/28 10:04:32;;;;;;;0.80;0.50;;;;;;;;;;5063150;28;20202;-74
2023/03/28 10:07:29;;;;;;;1.30;0.40;;;;;;;;;;5079702;28;20213;-75
2023/03/28 10:10:10;;;;;;;0.97;0.50;;;;;;;;;;5075365;28;20206;-75
2023/03/28 10:12:37;;;;;;;1.33;0.70;;;;;;;;;;5080672;28;20641;-75
2023/03/28 10:15:06;;;;;;;0.97;0.30;;;;;;;;;;5081777;28;20207;-75
2023/03/28 10:17:51;;;;;;;0.70;0.40;;;;;;;;;;5079370;28;20232;-73
2023/03/28 10:20:23;;;;;;;0.40;0.40;;;;;;;;;;5060413;28;20237;-75
2023/03/28 10:22:56;;;;;;;0.43;0.37;;;;;;;;;;5063514;28;20717;-74
2023/03/28 10:25:30;;;;;;;0.50;0.50;;;;;;;;;;5081790;28;20230;-75
2023/03/28 10:27:59;;;;;;;1.30;0.57;;;;;;;;;;5078191;28;20198;-74
2023/03/28 10:30:28;;;;;;;1.90;0.50;;;;;;;;;;5069337;28;20269;-74
2023/03/28 10:33:07;;;;;;;2.20;0.63;;;;;;;;;;5080158;28;20222;-74
2023/03/28 10:35:56;;;;;;;0.40;0.40;;;;;;;;;;5062085;28;20199;-75
2023/03/28 10:38:24;;;;;;;0.90;0.43;;;;;;;;;;5064687;28;20260;-75
2023/03/28 10:41:11;;;;;;;0.60;0.50;;;;;;;;;;5072459;28;20226;-72
2023/03/28 10:44:16;;;;;;;0.60;0.60;;;;;;;;;;5064018;28;20557;-74
2023/03/28 10:46:49;;;;;;;1.20;0.87;;;;;;;;;;5062253;28;20207;-74
2023/03/28 10:49:20;;;;;;;2.20;1.00;;;;;;;;;;5058798;28;20211;-74
2023/03/28 10:51:57;;;;;;;1.07;0.50;;;;;;;;;;5062035;28;20198;-75
2023/03/28 10:54:34;;;;;;;3.50;0.53;;;;;;;;;;5072878;28;20226;-75
2023/03/28 10:57:04;;;;;;;1.13;0.43;;;;;;;;;;5076327;28;20734;-75
2023/03/28 10:59:39;;;;;;;0.30;0.23;;;;;;;;;;5072782;28;20190;-72
2023/03/28 11:02:23;;;;;;;1.00;0.53;;;;;;;;;;5056788;28;20582;-74
2023/03/28 11:04:54;;;;;;;0.30;0.30;;;;;;;;;;5079432;28;20201;-74
2023/03/28 11:07:26;;;;;;;0.93;0.40;;;;;;;;;;5064679;28;20690;-75
2023/03/28 11:10:10;;;;;;;0.40;0.40;;;;;;;;;;5078070;28;20690;-72
2023/03/28 11:13:02;;;;;;;0.40;0.40;;;;;;;;;;5061539;28;20250;-75
2023/03/28 11:15:40;;;;;;;0.40;0.40;;;;;;;;;;5059276;28;20284;-75
2023/03/28 11:18:22;;;;;;;1.47;0.40;;;;;;;;;;5057173;28;20598;-72
2023/03/28 11:20:52;;;;;;;0.50;0.50;;;;;;;;;;5059999;28;20785;-73
2023/03/28 11:23:34;;;;;;;2.73;2.40;;;;;;;;;;5060129;28;20488;-74
2023/03/28 11:26:25;;;;;;;0.40;0.30;;;;;;;;;;5069772;28;20210;-76
2023/03/28 11:29:15;;;;;;;0.93;0.70;;;;;;;;;;5080219;28;20551;-75
2023/03/28 11:31:45;;;;;;;1.10;0.60;;;;;;;;;;5056676;28;20207;-74
2023/03/28 11:34:15;;;;;;;1.07;0.60;;;;;;;;;;5075782;28;20221;-74
2023/03/28 11:36:46;;;;;;;0.47;0.30;;;;;;;;;;5060153;28;20195;-74
2023/03/28 11:39:15;;;;;;;0.43;0.40;;;;;;;;;;5053403;28;20198;-74
2023/03/28 11:41:44;;;;;;;0.47;0.47;;;;;;;;;;5077038;28;20203;-73
2023/03/28 11:44:19;;;;;;;0.77;0.57;;;;;;;;;;5076141;28;20210;-72
2023/03/28 11:46:51;;;;;;;0.40;0.40;;;;;;;;;;5059061;28;20221;-74
2023/03/28 11:49:23;;;;;;;1.13;0.70;;;;;;;;;;5063351;28;20191;-74
2023/03/28 11:51:54;;;;;;;0.30;0.30;;;;;;;;;;5072242;28;20201;-73
2023/03/28 11:54:21;;;;;;;1.03;0.60;;;;;;;;;;5070870;28;20563;-74
2023/03/28 11:56:51;;;;;;;0.50;0.40;;;;;;;;;;5054047;28;20253;-73
2023/03/28 11:59:25;;;;;;;1.67;0.50;;;;;;;;;;5053129;28;20272;-74
2023/03/28 12:01:55;;;;;;;1.47;0.43;;;;;;;;;;5052936;28;20199;-74
2023/03/28 12:04:26;;;;;;;0.83;0.50;;;;;;;;;;5066698;28;20222;-74
2023/03/28 12:06:59;;;;;;;0.67;0.60;;;;;;;;;;5086253;28;20219;-74
2023/03/28 12:09:27;;;;;;;1.30;0.50;;;;;;;;;;5070184;28;20191;-74
2023/03/28 12:11:56;;;;;;;0.30;0.30;;;;;;;;;;5056183;28;20718;-74
2023/03/28 12:14:28;;;;;;;0.20;0.20;;;;;;;;;;5055288;28;20238;-74
2023/03/28 12:17:00;;;;;;;0.30;0.30;;;;;;;;;;5057190;28;20670;-73
2023/03/28 12:19:30;;;;;;;0.77;0.53;;;;;;;;;;5054555;28;20298;-74
2023/03/28 12:22:07;;;;;;;1.57;0.40;;;;;;;;;;5072938;28;20198;-73
2023/03/28 12:24:45;;;;;;;0.73;0.40;;;;;;;;;;5059821;28;20229;-75
2023/03/28 12:27:24;;;;;;;0.77;0.33;;;;;;;;;;5056528;28;20211;-73
2023/03/28 12:29:52;;;;;;;0.83;0.60;;;;;;;;;;5054278;28;20191;-74
2023/03/28 12:32:30;;;;;;;1.33;0.70;;;;;;;;;;5049949;28;20210;-72
2023/03/28 12:35:04;;;;;;;0.70;0.70;;;;;;;;;;5056189;28;20187;-73
2023/03/28 12:37:58;;;;;;;1.23;0.90;;;;;;;;;;5046120;28;20289;-74
2023/03/28 12:40:28;;;;;;;0.40;0.40;;;;;;;;;;5054389;28;20324;-74
2023/03/28 12:42:57;;;;;;;2.47;0.80;;;;;;;;;;5073162;28;20214;-74
2023/03/28 12:45:28;;;;;;;0.50;0.50;;;;;;;;;;5056667;28;20206;-73
2023/03/28 12:47:55;;;;;;;0.47;0.40;;;;;;;;;;5070413;28;20221;-74
2023/03/28 12:50:26;;;;;;;0.70;0.70;;;;;;;;;;5049418;28;20504;-74
2023/03/28 12:52:54;;;;;;;0.40;0.40;;;;;;;;;;5069870;28;20591;-74
2023/03/28 12:55:42;;;;;;;1.30;0.70;;;;;;;;;;5053311;28;20187;-74
2023/03/28 12:58:28;;;;;;;0.97;0.50;;;;;;;;;;5061867;28;20357;-74
2023/03/28 13:01:27;;;;;;;0.80;0.60;;;;;;;;;;5069619;28;20199;-72
2023/03/28 13:04:17;;;;;;;0.40;0.40;;;;;;;;;;5069659;22;20251;-70
2023/03/28 13:07:04;;;;;;;1.40;0.60;;;;;;;;;;5053016;28;20234;-70
2023/03/28 13:09:57;;;;;;;0.57;0.50;;;;;;;;;;5066845;28;20305;-71
2023/03/28 13:12:29;;;;;;;0.50;0.50;;;;;;;;;;5030147;28;20579;-70
2023/03/28 13:15:00;;;;;;;0.57;0.33;;;;;;;;;;5062190;28;20196;-70
2023/03/28 13:17:27;;;;;;;0.57;0.50;;;;;;;;;;5048154;28;20586;-71
2023/03/28 13:19:54;;;;;;;1.40;0.47;;;;;;;;;;5069853;28;20199;-70
2023/03/28 13:22:28;;;;;;;1.13;0.33;;;;;;;;;;5064064;28;20727;-72
2023/03/28 13:25:15;;;;;;;1.20;0.50;;;;;;;;;;5061435;28;20206;-70
2023/03/28 13:27:41;;;;;;;0.40;0.30;;;;;;;;;;5058299;28;20275;-69
2023/03/28 13:30:15;;;;;;;0.40;0.40;;;;;;;;;;5071419;28;20190;-70
2023/03/28 13:32:44;;;;;;;0.47;0.37;;;;;;;;;;5062391;28;20199;-72
2023/03/28 13:35:34;;;;;;;0.70;0.50;;;;;;;;;;5071722;28;20210;-70
2023/03/28 13:38:13;;;;;;;0.27;0.27;;;;;;;;;;5059906;28;20193;-70
2023/03/28 13:40:44;;;;;;;0.70;0.70;;;;;;;;;;5064297;28;20191;-69
2023/03/28 13:43:22;;;;;;;0.80;0.40;;;;;;;;;;5065615;28;20215;-69
2023/03/28 13:45:53;;;;;;;1.20;0.80;;;;;;;;;;5061602;28;20302;-70
2023/03/28 13:48:20;;;;;;;0.60;0.50;;;;;;;;;;5066232;28;20249;-71
2023/03/28 13:50:48;;;;;;;0.93;0.60;;;;;;;;;;5058600;28;20199;-70
2023/03/28 13:53:14;;;;;;;1.27;0.40;;;;;;;;;;5059992;28;20223;-72
2023/03/28 13:55:42;;;;;;;0.50;0.30;;;;;;;;;;5066834;28;20199;-71
2023/03/28 13:58:10;;;;;;;0.60;0.50;;;;;;;;;;5063686;28;20199;-70
2023/03/28 14:00:36;;;;;;;0.60;0.60;;;;;;;;;;5060859;28;20206;-72
2023/03/28 14:03:05;;;;;;;0.83;0.60;;;;;;;;;;5046433;28;20230;-71
2023/03/28 14:05:31;;;;;;;0.70;0.40;;;;;;;;;;5064047;28;20681;-70
2023/03/28 14:08:02;;;;;;;0.90;0.70;;;;;;;;;;5064574;28;20333;-70
2023/03/28 14:10:29;;;;;;;0.63;0.63;;;;;;;;;;5059576;28;20194;-69
2023/03/28 14:12:57;;;;;;;0.50;0.50;;;;;;;;;;5060351;28;20223;-70
2023/03/28 14:15:24;;;;;;;0.53;0.43;;;;;;;;;;5046601;28;20206;-70
2023/03/28 14:17:51;;;;;;;0.60;0.60;;;;;;;;;;5061977;28;20192;-71
2023/03/28 14:20:19;;;;;;;1.07;0.50;;;;;;;;;;5058421;28;20203;-70
2023/03/28 14:22:50;;;;;;;0.50;0.50;;;;;;;;;;5063391;28;20211;-71
2023/03/28 14:25:16;;;;;;;0.50;0.40;;;;;;;;;;5061022;28;20203;-70
2023/03/28 14:27:44;;;;;;;1.00;0.80;;;;;;;;;;5060487;28;20206;-69
2023/03/28 14:30:16;;;;;;;0.87;0.60;;;;;;;;;;5049577;28;20509;-70
2023/03/28 14:32:51;;;;;;;0.60;0.60;;;;;;;;;;5067464;28;20218;-70
2023/03/28 14:35:19;;;;;;;0.40;0.40;;;;;;;;;;5057478;28;20236;-69
2023/03/28 14:37:47;;;;;;;0.40;0.40;;;;;;;;;;5061956;28;20204;-69
2023/03/28 14:40:18;;;;;;;0.30;0.30;;;;;;;;;;5052978;28;20222;-69
2023/03/28 14:42:44;;;;;;;1.50;0.40;;;;;;;;;;5056330;28;20709;-69
2023/03/28 14:45:13;;;;;;;0.47;0.47;;;;;;;;;;5060542;28;20233;-69
2023/03/28 14:47:40;;;;;;;0.53;0.53;;;;;;;;;;5057671;28;20222;-69
2023/03/28 14:50:07;;;;;;;0.50;0.50;;;;;;;;;;5061360;28;20198;-71
2023/03/28 14:52:39;;;;;;;0.37;0.37;;;;;;;;;;5058618;28;20543;-70
2023/03/28 14:55:06;;;;;;;1.63;0.50;;;;;;;;;;5058641;28;20281;-69
2023/03/28 14:57:33;;;;;;;1.40;0.53;;;;;;;;;;5057535;28;20192;-72
2023/03/28 14:59:59;;;;;;;1.13;0.80;;;;;;;;;;5057897;28;20204;-68
2023/03/28 15:02:27;;;;;;;0.57;0.57;;;;;;;;;;5057287;28;20694;-70
2023/03/28 15:04:55;;;;;;;1.57;0.60;;;;;;;;;;5056516;28;20292;-69
2023/03/28 15:07:22;;;;;;;3.10;0.53;;;;;;;;;;5060840;28;20709;-69
2023/03/28 15:10:03;;;;;;;1.40;0.40;;;;;;;;;;5053003;28;20203;-70
2023/03/28 15:12:29;;;;;;;9.30;2.43;;;;;;;;;;5055593;28;20191;-72
2023/03/28 15:14:56;;;;;;;2.97;1.20;;;;;;;;;;5059059;28;20199;-71
2023/03/28 15:17:25;;;;;;;1.07;0.53;;;;;;;;;;5054153;28;20191;-70
2023/03/28 15:19:54;;;;;;;1.13;0.70;;;;;;;;;;5057938;28;20210;-70